createdAt,value
2023-03-18T10:23:57.421Z,101378.09
2023-03-18T10:25:24.092Z,101380.79
2023-03-18T10:26:57.786Z,101383.06
2023-03-18T10:28:26.171Z,101386.58
2023-03-18T10:29:43.918Z,101387.75
2023-03-18T10:31:05.028Z,101388.58
2023-03-18T10:32:24.560Z,101386.60
2023-03-18T10:33:40.570Z,101384.60
2023-03-18T10:35:16.698Z,101390.52
2023-03-18T10:36:29.495Z,101383.18
2023-03-18T10:37:35.203Z,101389.58
2023-03-18T10:38:44.948Z,101385.13
2023-03-18T10:39:49.463Z,101381.61
2023-03-18T10:40:53.148Z,101383.77
2023-03-18T10:42:01.154Z,101370.45
2023-03-18T10:43:04.668Z,101369.39
2023-03-18T10:44:27.779Z,101365.15
2023-03-18T10:45:34.584Z,101365.34
2023-03-18T10:46:38.764Z,101367.54
2023-03-18T10:47:49.416Z,101376.03
2023-03-18T10:48:59.247Z,101365.29
2023-03-18T10:50:20.763Z,101364.54
2023-03-18T10:51:26.568Z,101354.64
2023-03-18T10:52:39.725Z,101353.78
2023-03-18T10:53:59.432Z,101356.03
2023-03-18T10:55:02.348Z,101366.48
2023-03-18T10:56:08.872Z,101356.67
2023-03-18T10:57:16.888Z,101353.77
2023-03-18T10:58:20.156Z,101356.71
2023-03-18T10:59:25.904Z,101360.38
2023-03-18T11:00:34.123Z,101350.17
2023-03-18T11:01:38.789Z,101356.71
2023-03-18T11:02:42.288Z,101357.50
2023-03-18T11:04:01.349Z,101354.63
2023-03-18T11:05:22.368Z,101351.34
2023-03-18T11:06:48.003Z,101363.16
2023-03-18T11:07:59.860Z,101364.45
2023-03-18T11:09:09.197Z,101357.90
2023-03-18T11:10:15.431Z,101355.66
2023-03-18T11:11:34.822Z,101356.23
2023-03-18T11:12:37.733Z,101361.81
2023-03-18T11:13:47.122Z,101360.42
2023-03-18T11:14:51.512Z,101364.20
2023-03-18T11:15:57.070Z,101360.48
2023-03-18T11:17:03.597Z,101372.64
2023-03-18T11:18:18.442Z,101362.08
2023-03-18T11:19:25.635Z,101364.47
2023-03-18T11:20:47.547Z,101360.17
2023-03-18T11:22:04.494Z,101358.41
2023-03-18T11:23:18.166Z,101355.13
2023-03-18T11:24:42.962Z,101360.81
2023-03-18T11:25:48.859Z,101356.80
2023-03-18T11:26:57.213Z,101354.33
2023-03-18T11:28:06.200Z,101357.60
2023-03-18T11:29:18.756Z,101352.38
2023-03-18T11:30:34.460Z,101352.61
2023-03-18T11:31:50.867Z,101346.77
2023-03-18T11:33:11.388Z,101352.13
2023-03-18T11:34:22.252Z,101335.93
2023-03-18T11:35:33.966Z,101336.64
2023-03-18T11:36:38.197Z,101339.81
2023-03-18T11:37:41.732Z,101338.09
2023-03-18T11:38:55.821Z,101331.13
2023-03-18T11:40:13.590Z,101335.17
2023-03-18T11:41:25.119Z,101332.66
2023-03-18T11:42:32.738Z,101337.88
2023-03-18T11:43:38.293Z,101331.27
2023-03-18T11:44:41.308Z,101338.80
2023-03-18T11:46:10.981Z,101336.12
2023-03-18T11:47:22.190Z,101334.39
2023-03-18T11:48:43.773Z,101331.24
2023-03-18T11:49:46.585Z,101331.20
2023-03-18T11:51:05.393Z,101328.08
2023-03-18T11:52:30.239Z,101327.95
2023-03-18T11:53:42.812Z,101320.43
2023-03-18T11:54:49.282Z,101319.04
2023-03-18T11:56:01.707Z,101316.70
2023-03-18T11:57:25.961Z,101310.09
2023-03-18T11:58:50.426Z,101307.99
2023-03-18T12:00:21.304Z,101307.55
2023-03-18T12:01:37.365Z,101302.52
2023-03-18T12:02:58.922Z,101301.98
2023-03-18T12:04:29.827Z,101298.93
2023-03-18T12:05:55.341Z,101302.98
2023-03-18T12:07:38.356Z,101304.79
2023-03-18T12:08:50.249Z,101302.44
2023-03-18T12:10:13.475Z,101309.73
2023-03-18T12:11:32.694Z,101302.54
2023-03-18T12:13:06.583Z,101300.30
2023-03-18T12:14:23.438Z,101309.75
2023-03-18T12:15:39.294Z,101305.63
2023-03-18T12:16:59.629Z,101307.23
2023-03-18T12:18:17.711Z,101311.96
2023-03-18T12:19:55.139Z,101311.23
2023-03-18T12:21:30.948Z,101310.05
2023-03-18T12:22:43.036Z,101309.21
2023-03-18T12:23:58.497Z,101316.30
2023-03-18T12:25:16.162Z,101312.61
2023-03-18T12:26:31.077Z,101314.70
2023-03-18T12:27:53.633Z,101309.11
2023-03-18T12:29:09.733Z,101317.79
2023-03-18T12:30:32.452Z,101322.55
2023-03-18T12:31:57.226Z,101319.32
2023-03-18T12:33:15.016Z,101322.23
2023-03-18T12:34:47.439Z,101328.93
2023-03-18T12:36:04.486Z,101324.42
2023-03-18T12:37:25.137Z,101312.67
2023-03-18T12:38:53.376Z,101321.31
2023-03-18T12:40:19.956Z,101316.40
2023-03-18T12:41:36.035Z,101316.27
2023-03-18T12:43:11.167Z,101317.85
2023-03-18T12:44:40.372Z,101314.63
2023-03-18T12:45:47.775Z,101311.05
2023-03-18T12:47:07.952Z,101315.97
2023-03-18T12:48:40.674Z,101308.64
2023-03-18T12:49:57.474Z,101310.64
2023-03-18T12:51:11.426Z,101305.05
2023-03-18T12:52:35.954Z,101305.30
2023-03-18T12:53:49.101Z,101309.84
2023-03-18T12:55:07.878Z,101308.15
2023-03-18T12:56:18.883Z,101315.88
2023-03-18T12:57:43.567Z,101313.45
2023-03-18T12:58:52.553Z,101310.30
2023-03-18T13:00:02.315Z,101301.14
2023-03-18T13:01:18.252Z,101296.96
2023-03-18T13:02:41.328Z,101301.30
2023-03-18T13:04:11.925Z,101306.50
2023-03-18T13:05:24.779Z,101301.17
2023-03-18T13:06:33.817Z,101305.39
2023-03-18T13:07:43.325Z,101297.85
2023-03-18T13:09:01.780Z,101300.33
2023-03-18T13:10:23.504Z,101295.90
2023-03-18T13:11:29.451Z,101305.38
2023-03-18T13:12:39.553Z,101316.58
2023-03-18T13:13:48.480Z,101302.92
2023-03-18T13:15:29.824Z,101304.21
2023-03-18T13:16:37.673Z,101307.23
2023-03-18T13:17:44.789Z,101311.33
2023-03-18T13:18:53.091Z,101310.55
2023-03-18T13:20:01.379Z,101312.20
2023-03-18T13:21:05.836Z,101311.48
2023-03-18T13:22:11.450Z,101303.72
2023-03-18T13:23:25.897Z,101305.95
2023-03-18T13:24:43.393Z,101313.40
2023-03-18T13:25:46.293Z,101319.83
2023-03-18T13:27:01.787Z,101321.36
2023-03-18T13:28:19.907Z,101322.02
2023-03-18T13:29:38.190Z,101323.72
2023-03-18T13:30:57.927Z,101323.41
2023-03-18T13:32:22.925Z,101334.95
2023-03-18T13:33:28.735Z,101322.16
2023-03-18T13:34:35.497Z,101327.05
2023-03-18T13:35:54.641Z,101330.66
2023-03-18T13:37:30.661Z,101330.50
2023-03-18T13:38:47.241Z,101324.96
2023-03-18T13:40:19.241Z,101319.66
2023-03-18T13:41:52.809Z,101326.61
2023-03-18T13:43:04.304Z,101316.58
2023-03-18T13:44:18.144Z,101313.53
2023-03-18T13:45:24.391Z,101317.03
2023-03-18T13:46:31.727Z,101321.27
2023-03-18T13:47:38.037Z,101320.00
2023-03-18T13:48:41.524Z,101320.86
2023-03-18T13:49:45.168Z,101321.19
2023-03-18T13:50:50.995Z,101318.74
2023-03-18T13:51:58.588Z,101325.11
2023-03-18T13:53:04.735Z,101328.27
2023-03-18T13:54:15.617Z,101320.77
2023-03-18T13:55:30.742Z,101320.38
2023-03-18T13:56:48.793Z,101318.93
2023-03-18T13:57:58.837Z,101326.89
2023-03-18T13:59:06.591Z,101323.94
2023-03-18T14:00:23.875Z,101314.75
2023-03-18T14:01:29.262Z,101316.33
2023-03-18T14:02:41.859Z,101310.86
2023-03-18T14:03:44.744Z,101315.33
2023-03-18T14:04:50.512Z,101308.21
2023-03-18T14:06:08.941Z,101310.67
2023-03-18T14:07:14.666Z,101306.25
2023-03-18T14:08:35.086Z,101315.86
2023-03-18T14:09:51.410Z,101312.35
2023-03-18T14:11:16.812Z,101318.31
2023-03-18T14:12:35.195Z,101310.02
2023-03-18T14:13:38.098Z,101314.83
2023-03-18T14:14:57.024Z,101321.23
2023-03-18T14:16:10.786Z,101316.67
2023-03-18T14:17:33.739Z,101317.34
2023-03-18T14:18:37.816Z,101317.76
2023-03-18T14:19:40.788Z,101312.13
2023-03-18T14:20:44.235Z,101307.79
2023-03-18T14:21:53.119Z,101310.64
2023-03-18T14:23:27.813Z,101308.29
2023-03-18T14:24:31.115Z,101312.28
2023-03-18T14:25:41.458Z,101309.39
2023-03-18T14:26:59.412Z,101307.15
2023-03-18T14:28:09.293Z,101310.32
2023-03-18T14:29:22.557Z,101310.33
2023-03-18T14:30:32.072Z,101313.22
2023-03-18T14:31:41.769Z,101311.09
2023-03-18T14:32:57.621Z,101306.70
2023-03-18T14:34:23.095Z,101300.13
2023-03-18T14:35:29.254Z,101303.81
2023-03-18T14:36:54.109Z,101307.48
2023-03-18T14:38:06.499Z,101303.64
2023-03-18T14:39:16.824Z,101295.79
2023-03-18T14:40:20.559Z,101296.45
2023-03-18T14:41:28.976Z,101297.36
2023-03-18T14:42:59.726Z,101297.69
2023-03-18T14:44:09.136Z,101286.90
2023-03-18T14:45:24.984Z,101287.84
2023-03-18T14:46:34.280Z,101287.98
2023-03-18T14:47:52.422Z,101289.77
2023-03-18T14:48:55.377Z,101294.69
2023-03-18T14:50:05.869Z,101289.67
2023-03-18T14:51:14.265Z,101293.47
2023-03-18T14:52:37.725Z,101289.95
2023-03-18T14:53:48.995Z,101291.77
2023-03-18T14:54:55.029Z,101289.02
2023-03-18T14:55:59.260Z,101293.46
2023-03-18T14:57:04.333Z,101290.12
2023-03-18T14:58:16.200Z,101293.71
2023-03-18T14:59:19.304Z,101294.64
2023-03-18T15:00:24.955Z,101298.19
2023-03-18T15:01:39.719Z,101298.39
2023-03-18T15:02:44.644Z,101301.33
2023-03-18T15:03:52.250Z,101297.11
2023-03-18T15:04:59.315Z,101298.90
2023-03-18T15:06:05.935Z,101299.71
2023-03-18T15:07:09.440Z,101300.73
2023-03-18T15:08:19.571Z,101303.60
2023-03-18T15:09:28.408Z,101298.17
2023-03-18T15:10:32.910Z,101298.52
2023-03-18T15:11:41.588Z,101303.13
2023-03-18T15:12:44.522Z,101302.17
2023-03-18T15:13:47.421Z,101307.39
2023-03-18T15:14:50.298Z,101302.50
2023-03-18T15:15:56.780Z,101301.05
2023-03-18T15:17:02.274Z,101309.23
2023-03-18T15:18:24.775Z,101308.91
2023-03-18T15:19:29.034Z,101305.70
2023-03-18T15:20:36.227Z,101306.07
2023-03-18T15:21:39.423Z,101304.46
2023-03-18T15:22:43.489Z,101305.09
2023-03-18T15:23:50.279Z,101303.02
2023-03-18T15:24:59.588Z,101301.38
2023-03-18T15:26:07.732Z,101306.63
2023-03-18T15:27:19.539Z,101307.41
2023-03-18T15:28:24.286Z,101304.98
2023-03-18T15:29:34.062Z,101304.91
2023-03-18T15:30:38.298Z,101302.67
2023-03-18T15:31:45.022Z,101304.65
2023-03-18T15:32:50.063Z,101308.57
2023-03-18T15:34:07.922Z,101306.67
2023-03-18T15:35:10.950Z,101308.46
2023-03-18T15:36:16.845Z,101312.40
2023-03-18T15:37:26.087Z,101311.07
2023-03-18T15:38:31.128Z,101316.89
2023-03-18T15:39:39.920Z,101307.55
2023-03-18T15:41:11.991Z,101317.96
2023-03-18T15:42:17.720Z,101315.61
2023-03-18T15:43:40.205Z,101310.09
2023-03-18T15:44:46.301Z,101311.95
2023-03-18T15:45:55.895Z,101309.77
2023-03-18T15:47:18.594Z,101310.38
2023-03-18T15:48:30.970Z,101310.48
2023-03-18T15:50:04.607Z,101312.98
2023-03-18T15:51:24.905Z,101308.98
2023-03-18T15:52:33.564Z,101311.95
2023-03-18T15:53:44.808Z,101314.65
2023-03-18T15:54:48.179Z,101317.55
2023-03-18T15:55:56.749Z,101319.03
2023-03-18T15:57:10.924Z,101323.73
2023-03-18T15:58:22.876Z,101329.86
2023-03-18T15:59:31.315Z,101325.50
2023-03-18T16:00:35.050Z,101327.13
2023-03-18T16:01:37.925Z,101325.89
2023-03-18T16:02:41.808Z,101327.63
2023-03-18T16:03:47.022Z,101323.24
2023-03-18T16:04:50.475Z,101319.61
2023-03-18T16:05:54.110Z,101322.29
2023-03-18T16:06:57.433Z,101325.27
2023-03-18T16:08:00.503Z,101323.73
2023-03-18T16:09:15.732Z,101321.25
2023-03-18T16:10:23.087Z,101326.26
2023-03-18T16:11:26.494Z,101328.41
2023-03-18T16:12:31.759Z,101330.48
2023-03-18T16:13:36.507Z,101330.52
2023-03-18T16:14:42.508Z,101335.85
2023-03-18T16:15:46.090Z,101337.17
2023-03-18T16:16:49.675Z,101338.32
2023-03-18T16:17:54.363Z,101337.20
2023-03-18T16:18:59.319Z,101339.31
2023-03-18T16:20:04.279Z,101334.29
2023-03-18T16:21:07.721Z,101334.24
2023-03-18T16:22:10.621Z,101336.88
2023-03-18T16:23:15.444Z,101335.01
2023-03-18T16:24:18.439Z,101334.80
2023-03-18T16:25:23.360Z,101344.61
2023-03-18T16:26:26.503Z,101334.00
2023-03-18T16:27:40.645Z,101345.48
2023-03-18T16:28:47.075Z,101338.94
2023-03-18T16:29:51.128Z,101341.64
2023-03-18T16:30:56.325Z,101340.64
2023-03-18T16:32:03.156Z,101342.11
2023-03-18T16:33:13.738Z,101346.05
2023-03-18T16:34:21.626Z,101346.05
2023-03-18T16:35:33.426Z,101348.69
2023-03-18T16:36:36.603Z,101350.29
2023-03-18T16:37:39.522Z,101353.26
2023-03-18T16:38:42.342Z,101353.96
2023-03-18T16:39:45.142Z,101350.67
2023-03-18T16:40:47.925Z,101351.30
2023-03-18T16:41:52.371Z,101350.96
2023-03-18T16:42:56.009Z,101350.59
2023-03-18T16:43:58.957Z,101349.88
2023-03-18T16:45:01.852Z,101349.41
2023-03-18T16:46:05.733Z,101347.52
2023-03-18T16:47:21.207Z,101353.35
2023-03-18T16:48:26.760Z,101357.14
2023-03-18T16:49:33.116Z,101361.64
2023-03-18T16:50:38.793Z,101358.66
2023-03-18T16:51:41.799Z,101358.88
2023-03-18T16:52:45.420Z,101359.95
2023-03-18T16:53:48.453Z,101362.48
2023-03-18T16:54:51.308Z,101366.15
2023-03-18T16:55:58.375Z,101365.14
2023-03-18T16:57:04.435Z,101364.20
2023-03-18T16:58:13.538Z,101363.07
2023-03-18T16:59:17.705Z,101365.39
2023-03-18T17:00:30.777Z,101364.64
2023-03-18T17:01:43.369Z,101364.72
2023-03-18T17:02:52.549Z,101366.83
2023-03-18T17:03:55.408Z,101365.74
2023-03-18T17:04:59.059Z,101365.36
2023-03-18T17:06:02.045Z,101366.10
2023-03-18T17:07:05.272Z,101365.98
2023-03-18T17:08:10.845Z,101366.10
2023-03-18T17:09:13.938Z,101369.58
2023-03-18T17:10:20.418Z,101363.70
2023-03-18T17:11:23.708Z,101367.98
2023-03-18T17:12:29.068Z,101373.89
2023-03-18T17:13:37.613Z,101374.19
2023-03-18T17:14:43.945Z,101378.39
2023-03-18T17:15:46.972Z,101375.41
2023-03-18T17:16:50.001Z,101374.16
2023-03-18T17:17:57.999Z,101379.70
2023-03-18T17:19:01.773Z,101377.88
2023-03-18T17:20:15.911Z,101380.90
2023-03-18T17:21:18.817Z,101384.27
2023-03-18T17:22:28.404Z,101384.59
2023-03-18T17:23:31.284Z,101381.46
2023-03-18T17:25:06.232Z,101388.75
2023-03-18T17:26:13.220Z,101385.43
2023-03-18T17:27:23.830Z,101385.34
2023-03-18T17:28:38.058Z,101385.36
2023-03-18T17:29:41.124Z,101385.30
2023-03-18T17:30:44.088Z,101388.60
2023-03-18T17:31:46.954Z,101390.63
2023-03-18T17:32:50.233Z,101388.92
2023-03-18T17:33:53.056Z,101390.65
2023-03-18T17:34:56.343Z,101390.20
2023-03-18T17:36:01.711Z,101391.34
2023-03-18T17:37:04.719Z,101394.98
2023-03-18T17:38:09.175Z,101396.83
2023-03-18T17:39:13.486Z,101400.70
2023-03-18T17:40:18.985Z,101399.95
2023-03-18T17:41:21.910Z,101403.16
2023-03-18T17:42:34.699Z,101402.43
2023-03-18T17:43:38.046Z,101403.70
2023-03-18T17:44:41.254Z,101404.88
2023-03-18T17:45:44.129Z,101408.67
2023-03-18T17:46:47.237Z,101406.61
2023-03-18T17:47:50.380Z,101410.64
2023-03-18T17:48:53.147Z,101411.14
2023-03-18T17:49:55.960Z,101410.48
2023-03-18T17:51:01.350Z,101411.08
2023-03-18T17:52:04.355Z,101413.30
2023-03-18T17:53:20.763Z,101414.54
2023-03-18T17:54:25.460Z,101412.19
2023-03-18T17:55:28.725Z,101414.39
2023-03-18T17:56:31.578Z,101413.64
2023-03-18T17:57:34.318Z,101417.52
2023-03-18T17:58:38.644Z,101415.24
2023-03-18T17:59:41.500Z,101415.70
2023-03-18T18:00:46.409Z,101416.75
2023-03-18T18:01:51.375Z,101420.54
2023-03-18T18:02:54.856Z,101413.61
2023-03-18T18:04:01.800Z,101415.88
2023-03-18T18:05:04.919Z,101418.84
2023-03-18T18:06:11.781Z,101419.90
2023-03-18T18:07:21.647Z,101424.30
2023-03-18T18:08:25.767Z,101425.95
2023-03-18T18:09:29.246Z,101426.52
2023-03-18T18:10:32.207Z,101429.13
2023-03-18T18:11:38.106Z,101431.77
2023-03-18T18:12:43.405Z,101435.16
2023-03-18T18:13:47.492Z,101434.73
2023-03-18T18:14:50.291Z,101434.70
2023-03-18T18:15:53.395Z,101435.08
2023-03-18T18:16:57.009Z,101433.18
2023-03-18T18:18:02.318Z,101433.26
2023-03-18T18:19:05.160Z,101434.56
2023-03-18T18:20:13.308Z,101433.83
2023-03-18T18:21:19.948Z,101434.95
2023-03-18T18:22:26.533Z,101432.24
2023-03-18T18:23:33.710Z,101433.77
2023-03-18T18:24:36.605Z,101432.60
2023-03-18T18:25:39.500Z,101433.51
2023-03-18T18:26:42.380Z,101433.84
2023-03-18T18:27:46.561Z,101430.48
2023-03-18T18:28:51.686Z,101427.70
2023-03-18T18:29:55.074Z,101429.10
2023-03-18T18:30:58.913Z,101426.60
2023-03-18T18:32:02.360Z,101427.02
2023-03-18T18:33:05.236Z,101431.59
2023-03-18T18:34:08.797Z,101430.02
2023-03-18T18:35:20.472Z,101431.70
2023-03-18T18:36:28.194Z,101429.33
2023-03-18T18:37:31.781Z,101428.82
2023-03-18T18:38:35.565Z,101427.35
2023-03-18T18:39:38.388Z,101432.28
2023-03-18T18:40:41.463Z,101430.35
2023-03-18T18:41:46.314Z,101429.57
2023-03-18T18:42:50.529Z,101431.63
2023-03-18T18:43:53.347Z,101431.13
2023-03-18T18:44:56.239Z,101431.34
2023-03-18T18:45:59.381Z,101434.05
2023-03-18T18:47:02.466Z,101433.08
2023-03-18T18:48:14.211Z,101432.98
2023-03-18T18:49:23.027Z,101432.78
2023-03-18T18:50:35.541Z,101431.91
2023-03-18T18:51:38.373Z,101433.60
2023-03-18T18:52:41.688Z,101429.45
2023-03-18T18:53:45.765Z,101431.56
2023-03-18T18:54:49.885Z,101433.09
2023-03-18T18:55:55.762Z,101429.69
2023-03-18T18:56:58.988Z,101427.45
2023-03-18T18:58:01.787Z,101426.39
2023-03-18T18:59:24.952Z,101428.58
2023-03-18T19:00:28.693Z,101425.67
2023-03-18T19:01:31.644Z,101428.24
2023-03-18T19:02:35.666Z,101428.17
2023-03-18T19:03:41.705Z,101432.40
2023-03-18T19:04:44.925Z,101430.45
2023-03-18T19:05:51.285Z,101430.79
2023-03-18T19:06:54.567Z,101431.13
2023-03-18T19:07:57.990Z,101430.02
2023-03-18T19:09:03.866Z,101430.52
2023-03-18T19:10:08.446Z,101429.16
2023-03-18T19:11:11.662Z,101431.92
2023-03-18T19:12:16.340Z,101429.94
2023-03-18T19:13:19.650Z,101429.80
2023-03-18T19:14:25.528Z,101430.10
2023-03-18T19:15:29.237Z,101433.52
2023-03-18T19:16:34.424Z,101432.08
2023-03-18T19:17:40.983Z,101434.39
2023-03-18T19:18:44.111Z,101431.45
2023-03-18T19:19:48.127Z,101432.73
2023-03-18T19:20:52.985Z,101429.73
2023-03-18T19:21:57.627Z,101428.45
2023-03-18T19:23:00.594Z,101428.98
2023-03-18T19:24:31.626Z,101427.63
2023-03-18T19:25:35.319Z,101428.04
2023-03-18T19:26:38.388Z,101426.73
2023-03-18T19:27:41.997Z,101429.31
2023-03-18T19:28:55.337Z,101428.41
2023-03-18T19:30:05.525Z,101430.07
2023-03-18T19:31:09.653Z,101428.49
2023-03-18T19:32:20.947Z,101430.21
2023-03-18T19:33:23.929Z,101426.02
2023-03-18T19:34:26.975Z,101428.64
2023-03-18T19:35:30.007Z,101430.64
2023-03-18T19:36:41.548Z,101434.32
2023-03-18T19:37:47.335Z,101431.21
2023-03-18T19:38:50.776Z,101436.29
2023-03-18T19:39:55.464Z,101438.71
2023-03-18T19:40:58.510Z,101432.92
2023-03-18T19:42:01.855Z,101437.52
2023-03-18T19:43:14.946Z,101434.59
2023-03-18T19:44:26.982Z,101436.04
2023-03-18T19:45:30.150Z,101441.35
2023-03-18T19:46:39.073Z,101437.45
2023-03-18T19:47:42.672Z,101434.40
2023-03-18T19:48:47.025Z,101438.10
2023-03-18T19:49:50.892Z,101440.98
2023-03-18T19:50:56.073Z,101443.58
2023-03-18T19:52:12.116Z,101443.41
2023-03-18T19:53:17.791Z,101443.17
2023-03-18T19:54:27.247Z,101444.86
2023-03-18T19:55:30.873Z,101445.14
2023-03-18T19:56:33.783Z,101447.19
2023-03-18T19:57:37.210Z,101445.84
2023-03-18T19:58:40.163Z,101444.73
2023-03-18T19:59:46.021Z,101445.53
2023-03-18T20:00:49.726Z,101447.80
2023-03-18T20:01:52.648Z,101445.88
2023-03-18T20:02:55.619Z,101444.02
2023-03-18T20:03:59.033Z,101446.79
2023-03-18T20:05:14.436Z,101447.98
2023-03-18T20:06:17.476Z,101446.95
2023-03-18T20:07:22.550Z,101447.98
2023-03-18T20:08:25.983Z,101451.11
2023-03-18T20:09:30.435Z,101451.00
2023-03-18T20:10:33.491Z,101449.64
2023-03-18T20:11:36.425Z,101446.80
2023-03-18T20:12:42.138Z,101450.68
2023-03-18T20:13:45.209Z,101449.42
2023-03-18T20:14:48.686Z,101448.07
2023-03-18T20:15:51.872Z,101447.98
2023-03-18T20:16:54.995Z,101444.15
2023-03-18T20:18:00.610Z,101445.31
2023-03-18T20:19:03.610Z,101442.98
2023-03-18T20:20:12.976Z,101441.55
2023-03-18T20:21:25.462Z,101440.38
2023-03-18T20:22:34.570Z,101438.55
2023-03-18T20:23:37.589Z,101438.08
2023-03-18T20:24:40.462Z,101435.95
2023-03-18T20:25:46.989Z,101430.27
2023-03-18T20:26:50.758Z,101428.86
2023-03-18T20:27:57.198Z,101429.77
2023-03-18T20:29:00.404Z,101428.59
2023-03-18T20:30:20.839Z,101429.09
2023-03-18T20:31:24.160Z,101428.23
2023-03-18T20:32:28.164Z,101431.56
2023-03-18T20:33:32.436Z,101431.67
2023-03-18T20:34:38.331Z,101431.20
2023-03-18T20:35:44.109Z,101432.24
2023-03-18T20:36:47.145Z,101432.34
2023-03-18T20:37:50.133Z,101430.21
2023-03-18T20:38:52.981Z,101426.65
2023-03-18T20:39:55.786Z,101426.61
2023-03-18T20:40:59.590Z,101423.12
2023-03-18T20:42:03.253Z,101424.37
2023-03-18T20:43:06.684Z,101425.40
2023-03-18T20:44:12.900Z,101426.23
2023-03-18T20:45:16.968Z,101420.09
2023-03-18T20:46:23.769Z,101419.82
2023-03-18T20:47:28.139Z,101420.40
2023-03-18T20:48:31.320Z,101420.98
2023-03-18T20:49:34.580Z,101417.11
2023-03-18T20:50:37.803Z,101419.86
2023-03-18T20:52:07.567Z,101421.03
2023-03-18T20:53:24.383Z,101417.24
2023-03-18T20:54:31.672Z,101419.77
2023-03-18T20:55:36.015Z,101414.41
2023-03-18T20:56:41.709Z,101412.69
2023-03-18T20:57:46.411Z,101419.73
2023-03-18T20:58:50.540Z,101411.08
2023-03-18T20:59:53.420Z,101415.52
2023-03-18T21:00:56.768Z,101413.66
2023-03-18T21:01:59.963Z,101411.20
2023-03-18T21:03:03.415Z,101411.06
2023-03-18T21:04:07.779Z,101409.55
2023-03-18T21:05:11.428Z,101406.71
2023-03-18T21:06:19.131Z,101407.75
2023-03-18T21:07:22.343Z,101406.98
2023-03-18T21:08:27.109Z,101405.79
2023-03-18T21:09:30.230Z,101407.23
2023-03-18T21:10:37.245Z,101409.23
2023-03-18T21:11:40.581Z,101407.64
2023-03-18T21:12:43.951Z,101412.84
2023-03-18T21:13:46.786Z,101417.09
2023-03-18T21:14:50.673Z,101417.39
2023-03-18T21:15:55.117Z,101415.65
2023-03-18T21:16:58.055Z,101421.92
2023-03-18T21:18:01.400Z,101422.43
2023-03-18T21:19:04.284Z,101419.34
2023-03-18T21:20:21.399Z,101419.75
2023-03-18T21:21:38.982Z,101418.55
2023-03-18T21:22:42.608Z,101416.72
2023-03-18T21:23:45.556Z,101421.09
2023-03-18T21:24:49.100Z,101420.38
2023-03-18T21:25:54.990Z,101419.89
2023-03-18T21:27:04.866Z,101417.13
2023-03-18T21:28:14.611Z,101418.55
2023-03-18T21:29:18.015Z,101415.90
2023-03-18T21:30:22.680Z,101417.10
2023-03-18T21:31:31.486Z,101416.10
2023-03-18T21:32:37.355Z,101414.48
2023-03-18T21:33:43.018Z,101414.24
2023-03-18T21:34:46.115Z,101411.58
2023-03-18T21:35:51.684Z,101416.20
2023-03-18T21:36:54.733Z,101413.59
2023-03-18T21:37:57.932Z,101413.46
2023-03-18T21:39:01.280Z,101407.98
2023-03-18T21:40:04.994Z,101406.34
2023-03-18T21:41:22.915Z,101406.84
2023-03-18T21:42:29.665Z,101404.84
2023-03-18T21:43:40.573Z,101404.27
2023-03-18T21:44:43.509Z,101402.18
2023-03-18T21:45:48.588Z,101401.49
2023-03-18T21:46:51.540Z,101403.42
2023-03-18T21:47:54.583Z,101403.98
2023-03-18T21:48:57.466Z,101401.65
2023-03-18T21:50:00.333Z,101402.98
2023-03-18T21:51:03.911Z,101403.70
2023-03-18T21:52:08.305Z,101405.73
2023-03-18T21:53:13.154Z,101406.66
2023-03-18T21:54:19.647Z,101407.05
2023-03-18T21:55:23.316Z,101409.34
2023-03-18T21:56:27.276Z,101408.21
2023-03-18T21:57:30.595Z,101405.64
2023-03-18T21:58:33.506Z,101405.50
2023-03-18T21:59:36.361Z,101405.61
2023-03-18T22:00:41.783Z,101404.98
2023-03-18T22:01:44.846Z,101405.23
2023-03-18T22:02:48.315Z,101407.04
2023-03-18T22:03:53.863Z,101408.30
2023-03-18T22:05:02.218Z,101407.58
2023-03-18T22:06:05.321Z,101410.36
2023-03-18T22:07:16.346Z,101410.55
2023-03-18T22:08:20.646Z,101408.89
2023-03-18T22:09:24.309Z,101405.62
2023-03-18T22:10:27.220Z,101406.25
2023-03-18T22:11:30.104Z,101404.59
2023-03-18T22:12:34.066Z,101402.68
2023-03-18T22:13:36.938Z,101403.98
2023-03-18T22:14:39.810Z,101401.88
2023-03-18T22:15:43.018Z,101394.83
2023-03-18T22:16:46.139Z,101400.64
2023-03-18T22:17:49.100Z,101403.48
2023-03-18T22:18:52.061Z,101405.73
2023-03-18T22:19:56.684Z,101404.60
2023-03-18T22:20:59.641Z,101405.48
2023-03-18T22:22:02.562Z,101402.98
2023-03-18T22:23:23.686Z,101400.54
2023-03-18T22:24:26.525Z,101404.00
2023-03-18T22:25:36.976Z,101398.06
2023-03-18T22:26:39.823Z,101396.63
2023-03-18T22:27:42.629Z,101397.92
2023-03-18T22:28:46.462Z,101400.03
2023-03-18T22:29:51.390Z,101403.55
2023-03-18T22:30:57.725Z,101403.77
2023-03-18T22:32:01.060Z,101405.27
2023-03-18T22:33:05.666Z,101408.29
2023-03-18T22:34:23.667Z,101403.77
2023-03-18T22:35:29.021Z,101406.17
2023-03-18T22:36:31.980Z,101404.99
2023-03-18T22:37:35.157Z,101407.66
2023-03-18T22:38:38.013Z,101403.77
2023-03-18T22:39:43.068Z,101405.14
2023-03-18T22:40:48.702Z,101406.77
2023-03-18T22:41:51.730Z,101403.80
2023-03-18T22:43:00.480Z,101406.77
2023-03-18T22:44:03.690Z,101409.23
2023-03-18T22:45:18.496Z,101411.40
2023-03-18T22:46:21.340Z,101412.40
2023-03-18T22:47:26.279Z,101416.79
2023-03-18T22:48:29.694Z,101413.63
2023-03-18T22:49:32.589Z,101414.84
2023-03-18T22:50:35.589Z,101415.23
2023-03-18T22:51:41.214Z,101415.73
2023-03-18T22:52:45.293Z,101414.31
2023-03-18T22:53:52.240Z,101411.77
2023-03-18T22:55:01.164Z,101410.88
2023-03-18T22:56:16.167Z,101412.91
2023-03-18T22:57:22.814Z,101412.77
2023-03-18T22:58:27.734Z,101409.42
2023-03-18T22:59:34.003Z,101408.39
2023-03-18T23:00:40.127Z,101408.52
2023-03-18T23:01:43.414Z,101407.52
2023-03-18T23:02:46.426Z,101407.42
2023-03-18T23:03:49.553Z,101412.27
2023-03-18T23:04:53.916Z,101413.71
2023-03-18T23:05:59.466Z,101412.96
2023-03-18T23:07:02.500Z,101411.42
2023-03-18T23:08:06.167Z,101414.21
2023-03-18T23:09:09.042Z,101416.12
2023-03-18T23:10:12.469Z,101413.63
2023-03-18T23:11:16.555Z,101419.98
2023-03-18T23:12:20.136Z,101417.77
2023-03-18T23:13:29.617Z,101415.71
2023-03-18T23:14:32.937Z,101420.31
2023-03-18T23:15:35.851Z,101422.38
2023-03-18T23:16:38.712Z,101421.46
2023-03-18T23:17:41.673Z,101421.30
2023-03-18T23:18:44.677Z,101422.91
2023-03-18T23:19:48.076Z,101419.20
2023-03-18T23:20:51.907Z,101420.00
2023-03-18T23:21:54.773Z,101422.18
2023-03-18T23:22:57.715Z,101420.79
2023-03-18T23:24:00.865Z,101420.67
2023-03-18T23:25:04.129Z,101419.98
2023-03-18T23:26:07.166Z,101417.17
2023-03-18T23:27:10.309Z,101418.94